Time;durP1;ratioP1;P1;durP2;ratioP2;P2;SDS_P1;SDS_P2;PMS_P1;PMS_P2;Temp;Humidity;BMP_temperature;BMP_pressure;BME280_temperature;BME280_humidity;BME280_pressure;Samples;Min_cycle;Max_cycle;Signal;HPM_P1;HPM_P2
2022/09/02 00:01:14;;;;;;;;;;;;;;;;;;6242666;23;19907;-79
2022/09/02 00:03:39;;;;;;;;;;;;;;;;;;6242584;23;19907;-80
2022/09/02 00:06:05;;;;;;;;;;;;;;;;;;6242330;23;19914;-79
2022/09/02 00:08:30;;;;;;;;;;;;;;;;;;6242847;23;19994;-80
2022/09/02 00:10:57;;;;;;;;;;;;;;;;;;6242010;23;19956;-79
2022/09/02 00:13:22;;;;;;;;;;;;;;;;;;6241084;23;19919;-79
2022/09/02 00:15:48;;;;;;;;;;;;;;;;;;6242544;23;19908;-80
2022/09/02 00:18:13;;;;;;;;;;;;;;;;;;6242419;23;19931;-79
2022/09/02 00:20:39;;;;;;;;;;;;;;;;;;6242277;23;19907;-80
2022/09/02 00:23:05;;;;;;;;;;;;;;;;;;6242832;23;19935;-79
2022/09/02 00:25:30;;;;;;;;;;;;;;;;;;6243215;23;20334;-81
2022/09/02 00:27:56;;;;;;;;;;;;;;;;;;6242565;23;20263;-79
2022/09/02 00:30:21;;;;;;;;;;;;;;;;;;6242449;23;19912;-81
2022/09/02 00:32:47;;;;;;;;;;;;;;;;;;6215829;23;20338;-79
2022/09/02 00:35:13;;;;;;;;;;;;;;;;;;6190471;23;19915;-77
2022/09/02 00:37:38;;;;;;;;;;;;;;;;;;6242972;23;19908;-78
2022/09/02 00:40:04;;;;;;;;;;;;;;;;;;6219092;23;19903;-78
2022/09/02 00:42:30;;;;;;;;;;;;;;;;;;6251872;23;19907;-78
2022/09/02 00:44:55;;;;;;;;;;;;;;;;;;6234040;23;20227;-79
2022/09/02 00:47:21;;;;;;;;;;;;;;;;;;6253017;23;19915;-80
2022/09/02 00:49:47;;;;;;;;;;;;;;;;;;6242965;23;19982;-77
2022/09/02 00:52:12;;;;;;;;;;;;;;;;;;6242646;23;19965;-79
2022/09/02 00:54:38;;;;;;;;;;;;;;;;;;6242397;23;19907;-78
2022/09/02 00:57:04;;;;;;;;;;;;;;;;;;6242382;23;19923;-78
2022/09/02 00:59:29;;;;;;;;;;;;;;;;;;6262731;23;20329;-83
2022/09/02 01:01:55;;;;;;;;;;;;;;;;;;6260007;23;20405;-82
2022/09/02 01:04:21;;;;;;;;;;;;;;;;;;6260394;23;19907;-82
2022/09/02 01:06:46;;;;;;;;;;;;;;;;;;6249346;23;19908;-79
2022/09/02 01:09:13;;;;;;;;;;;;;;;;;;6216142;23;19912;-80
2022/09/02 01:11:38;;;;;;;;;;;;;;;;;;6241967;23;19911;-79
2022/09/02 01:14:05;;;;;;;;;;;;;;;;;;6242408;23;19957;-78
2022/09/02 01:16:31;;;;;;;;;;;;;;;;;;6215707;23;19908;-78
2022/09/02 01:18:57;;;;;;;;;;;;;;;;;;6215314;23;19914;-79
2022/09/02 01:21:23;;;;;;;;;;;;;;;;;;6242027;23;19907;-80
2022/09/02 01:23:49;;;;;;;;;;;;;;;;;;6242143;23;19914;-79
2022/09/02 01:26:14;;;;;;;;;;;;;;;;;;6242345;23;19908;-79
2022/09/02 01:28:40;;;;;;;;;;;;;;;;;;6242153;23;19907;-78
2022/09/02 01:31:05;;;;;;;;;;;;;;;;;;6243384;23;19946;-79
2022/09/02 01:33:31;;;;;;;;;;;;;;;;;;6244205;23;19915;-78
2022/09/02 01:35:57;;;;;;;;;;;;;;;;;;6243329;23;20324;-79
2022/09/02 01:38:22;;;;;;;;;;;;;;;;;;6243899;23;19918;-79
2022/09/02 01:40:48;;;;;;;;;;;;;;;;;;6217027;23;19907;-78
2022/09/02 01:43:14;;;;;;;;;;;;;;;;;;6217348;23;20331;-79
2022/09/02 01:45:39;;;;;;;;;;;;;;;;;;6243928;23;19914;-78
2022/09/02 01:48:05;;;;;;;;;;;;;;;;;;6217125;23;20351;-80
2022/09/02 01:50:30;;;;;;;;;;;;;;;;;;6192017;23;19907;-80
2022/09/02 01:52:57;;;;;;;;;;;;;;;;;;6216836;23;20021;-79
2022/09/02 01:55:22;;;;;;;;;;;;;;;;;;6217378;23;19935;-79
2022/09/02 01:57:49;;;;;;;;;;;;;;;;;;6216804;23;20417;-79
2022/09/02 02:00:15;;;;;;;;;;;;;;;;;;6217118;23;19911;-79
2022/09/02 02:02:40;;;;;;;;;;;;;;;;;;6243756;23;19908;-79
2022/09/02 02:05:06;;;;;;;;;;;;;;;;;;6217231;23;19947;-78
2022/09/02 02:07:32;;;;;;;;;;;;;;;;;;6217076;23;20041;-78
2022/09/02 02:09:57;;;;;;;;;;;;;;;;;;6191743;23;19907;-80
2022/09/02 02:12:23;;;;;;;;;;;;;;;;;;6217882;23;20237;-82
2022/09/02 02:14:49;;;;;;;;;;;;;;;;;;6221801;23;19907;-81
2022/09/02 02:17:14;;;;;;;;;;;;;;;;;;6246670;23;20270;-81
2022/09/02 02:19:40;;;;;;;;;;;;;;;;;;6248369;23;19907;-81
2022/09/02 02:22:06;;;;;;;;;;;;;;;;;;6197388;23;19907;-81
2022/09/02 02:24:32;;;;;;;;;;;;;;;;;;6218808;23;20078;-82
2022/09/02 02:26:59;;;;;;;;;;;;;;;;;;6247960;23;19990;-81
2022/09/02 02:29:25;;;;;;;;;;;;;;;;;;6222167;23;19908;-81
2022/09/02 02:31:50;;;;;;;;;;;;;;;;;;6247636;23;19911;-83
2022/09/02 02:34:16;;;;;;;;;;;;;;;;;;6217307;23;19919;-82
2022/09/02 02:36:42;;;;;;;;;;;;;;;;;;6217550;23;19911;-80
2022/09/02 02:39:08;;;;;;;;;;;;;;;;;;6257019;23;19951;-80
2022/09/02 02:41:34;;;;;;;;;;;;;;;;;;6234372;23;19925;-79
2022/09/02 02:43:59;;;;;;;;;;;;;;;;;;6227352;23;19907;-81
2022/09/02 02:46:25;;;;;;;;;;;;;;;;;;6227623;23;19907;-82
2022/09/02 02:48:51;;;;;;;;;;;;;;;;;;6249615;23;19908;-81
2022/09/02 02:51:17;;;;;;;;;;;;;;;;;;6250581;23;19908;-83
2022/09/02 02:53:43;;;;;;;;;;;;;;;;;;6236499;23;19922;-85
2022/09/02 02:56:10;;;;;;;;;;;;;;;;;;6268291;23;19935;-85
2022/09/02 02:58:36;;;;;;;;;;;;;;;;;;6229103;23;19913;-82
2022/09/02 03:01:01;;;;;;;;;;;;;;;;;;6216833;23;19935;-79
2022/09/02 03:03:28;;;;;;;;;;;;;;;;;;6216658;23;19953;-79
2022/09/02 03:05:54;;;;;;;;;;;;;;;;;;6242990;23;19915;-79
2022/09/02 03:08:20;;;;;;;;;;;;;;;;;;6216658;23;19907;-81
2022/09/02 03:10:50;;;;;;;;;;;;;;;;;;6191273;23;20362;-81
2022/09/02 03:13:16;;;;;;;;;;;;;;;;;;6216750;23;19922;-81
2022/09/02 03:15:43;;;;;;;;;;;;;;;;;;6224528;23;19907;-83
2022/09/02 03:18:09;;;;;;;;;;;;;;;;;;6257721;23;19977;-83
2022/09/02 03:20:34;;;;;;;;;;;;;;;;;;6230981;23;19907;-82
2022/09/02 03:23:03;;;;;;;;;;;;;;;;;;6237595;23;19955;-84
2022/09/02 03:25:30;;;;;;;;;;;;;;;;;;6221802;23;19907;-82
2022/09/02 03:27:56;;;;;;;;;;;;;;;;;;6220015;23;19913;-81
2022/09/02 03:30:21;;;;;;;;;;;;;;;;;;6245657;23;19907;-80
2022/09/02 03:32:47;;;;;;;;;;;;;;;;;;6246484;23;20363;-81
2022/09/02 03:35:14;;;;;;;;;;;;;;;;;;6216903;23;20297;-81
2022/09/02 03:37:39;;;;;;;;;;;;;;;;;;6216342;23;19907;-81
2022/09/02 03:40:05;;;;;;;;;;;;;;;;;;6216135;23;19914;-81
2022/09/02 03:42:31;;;;;;;;;;;;;;;;;;6216128;23;19960;-80
2022/09/02 03:44:57;;;;;;;;;;;;;;;;;;6243983;23;20355;-82
2022/09/02 03:47:22;;;;;;;;;;;;;;;;;;6244711;23;19957;-82
2022/09/02 03:49:48;;;;;;;;;;;;;;;;;;6218133;23;20268;-80
2022/09/02 03:52:14;;;;;;;;;;;;;;;;;;6219089;23;19939;-81
2022/09/02 03:54:40;;;;;;;;;;;;;;;;;;6193827;23;19907;-83
2022/09/02 03:57:05;;;;;;;;;;;;;;;;;;6217925;23;19907;-81
2022/09/02 03:59:31;;;;;;;;;;;;;;;;;;6244874;23;19989;-83
2022/09/02 04:01:56;;;;;;;;;;;;;;;;;;6216431;23;20409;-80
2022/09/02 04:04:22;;;;;;;;;;;;;;;;;;6217577;23;19994;-82
2022/09/02 04:06:49;;;;;;;;;;;;;;;;;;6216359;23;19907;-83
2022/09/02 04:09:14;;;;;;;;;;;;;;;;;;6218070;23;19908;-79
2022/09/02 04:11:41;;;;;;;;;;;;;;;;;;6191852;23;19950;-81
2022/09/02 04:14:07;;;;;;;;;;;;;;;;;;6215956;23;20372;-81
2022/09/02 04:16:33;;;;;;;;;;;;;;;;;;6242510;23;19969;-82
2022/09/02 04:19:04;;;;;;;;;;;;;;;;;;6215868;23;19908;-81
2022/09/02 04:21:29;;;;;;;;;;;;;;;;;;6216279;23;19908;-81
2022/09/02 04:23:55;;;;;;;;;;;;;;;;;;6242911;23;20355;-81
2022/09/02 04:26:21;;;;;;;;;;;;;;;;;;6244268;23;19946;-82
2022/09/02 04:28:49;;;;;;;;;;;;;;;;;;6219765;23;19915;-84
2022/09/02 04:31:15;;;;;;;;;;;;;;;;;;6216371;23;19919;-82
2022/09/02 04:33:41;;;;;;;;;;;;;;;;;;6215859;23;19915;-75
2022/09/02 04:36:10;;;;;;;;;;;;;;;;;;6217756;23;19915;-77
2022/09/02 04:38:36;;;;;;;;;;;;;;;;;;6242550;23;19907;-77
2022/09/02 04:41:03;;;;;;;;;;;;;;;;;;6215378;23;19911;-77
2022/09/02 04:43:28;;;;;;;;;;;;;;;;;;6241246;23;19907;-76
2022/09/02 04:45:55;;;;;;;;;;;;;;;;;;6215110;23;19911;-78
2022/09/02 04:48:22;;;;;;;;;;;;;;;;;;6209894;23;19935;-73
2022/09/02 04:50:48;;;;;;;;;;;;;;;;;;6213745;23;19990;-74
2022/09/02 04:53:13;;;;;;;;;;;;;;;;;;6241237;23;19939;-74
2022/09/02 04:55:39;;;;;;;;;;;;;;;;;;6214267;23;19908;-74
2022/09/02 04:58:07;;;;;;;;;;;;;;;;;;6216033;23;19907;-75
2022/09/02 05:00:33;;;;;;;;;;;;;;;;;;6224720;23;19965;-74
2022/09/02 05:02:59;;;;;;;;;;;;;;;;;;6226300;23;19911;-73
2022/09/02 05:05:27;;;;;;;;;;;;;;;;;;6222822;23;19919;-74
2022/09/02 05:07:54;;;;;;;;;;;;;;;;;;6215922;23;20410;-77
2022/09/02 05:10:20;;;;;;;;;;;;;;;;;;6243078;23;19907;-73
2022/09/02 05:12:46;;;;;;;;;;;;;;;;;;6190725;23;19926;-76
2022/09/02 05:15:12;;;;;;;;;;;;;;;;;;6215876;23;19930;-77
2022/09/02 05:17:37;;;;;;;;;;;;;;;;;;6214358;23;19911;-76
2022/09/02 05:20:04;;;;;;;;;;;;;;;;;;6215593;23;19990;-75
2022/09/02 05:22:30;;;;;;;;;;;;;;;;;;6215927;23;19918;-76
2022/09/02 05:24:58;;;;;;;;;;;;;;;;;;6215727;23;19907;-76
2022/09/02 05:27:24;;;;;;;;;;;;;;;;;;6215734;23;20308;-76
2022/09/02 05:29:49;;;;;;;;;;;;;;;;;;6190782;23;20292;-76
2022/09/02 05:32:18;;;;;;;;;;;;;;;;;;6215274;23;20387;-76
2022/09/02 05:34:47;;;;;;;;;;;;;;;;;;6215755;23;19915;-76
2022/09/02 05:37:13;;;;;;;;;;;;;;;;;;6242364;23;19919;-76
2022/09/02 05:39:38;;;;;;;;;;;;;;;;;;6242534;23;19907;-76
2022/09/02 05:42:05;;;;;;;;;;;;;;;;;;6214427;23;20359;-76
2022/09/02 05:44:32;;;;;;;;;;;;;;;;;;6215248;23;20268;-76
2022/09/02 05:46:58;;;;;;;;;;;;;;;;;;6215243;23;20328;-76
2022/09/02 05:49:25;;;;;;;;;;;;;;;;;;6191262;23;19969;-76
2022/09/02 05:51:58;;;;;;;;;;;;;;;;;;6214840;23;19919;-75
2022/09/02 05:54:31;;;;;;;;;;;;;;;;;;6215077;23;20348;-76
2022/09/02 05:57:00;;;;;;;;;;;;;;;;;;6214552;23;20354;-75
2022/09/02 05:59:26;;;;;;;;;;;;;;;;;;6215228;23;19922;-75
2022/09/02 06:01:53;;;;;;;;;;;;;;;;;;6215070;23;19918;-76
2022/09/02 06:04:19;;;;;;;;;;;;;;;;;;6215279;23;19990;-76
2022/09/02 06:06:46;;;;;;;;;;;;;;;;;;6215264;23;19986;-75
2022/09/02 06:09:13;;;;;;;;;;;;;;;;;;6214941;23;19907;-75
2022/09/02 06:11:43;;;;;;;;;;;;;;;;;;6189672;23;19922;-75
2022/09/02 06:14:09;;;;;;;;;;;;;;;;;;6189792;23;19911;-75
2022/09/02 06:16:37;;;;;;;;;;;;;;;;;;6214765;23;19912;-75
2022/09/02 06:19:04;;;;;;;;;;;;;;;;;;6214891;23;19907;-75
2022/09/02 06:21:29;;;;;;;;;;;;;;;;;;6242047;23;19938;-75
2022/09/02 06:23:56;;;;;;;;;;;;;;;;;;6214937;23;19911;-75
2022/09/02 06:26:22;;;;;;;;;;;;;;;;;;6215043;23;20422;-75
2022/09/02 06:28:48;;;;;;;;;;;;;;;;;;6215504;23;20368;-75
2022/09/02 06:31:14;;;;;;;;;;;;;;;;;;6215046;23;19907;-75
2022/09/02 06:33:40;;;;;;;;;;;;;;;;;;6243632;23;19919;-73
2022/09/02 06:36:06;;;;;;;;;;;;;;;;;;6214534;23;19922;-73
2022/09/02 06:38:33;;;;;;;;;;;;;;;;;;6213794;23;19986;-73
2022/09/02 06:40:59;;;;;;;;;;;;;;;;;;6215145;23;19915;-73
2022/09/02 06:43:34;;;;;;;;;;;;;;;;;;6214695;23;19930;-73
2022/09/02 06:46:08;;;;;;;;;;;;;;;;;;6213724;23;19911;-73
2022/09/02 06:48:36;;;;;;;;;;;;;;;;;;6214847;23;19962;-73
2022/09/02 06:51:02;;;;;;;;;;;;;;;;;;6214664;23;19908;-73
2022/09/02 06:53:28;;;;;;;;;;;;;;;;;;6214869;23;19969;-74
2022/09/02 06:55:53;;;;;;;;;;;;;;;;;;6214656;23;19993;-73
2022/09/02 06:58:20;;;;;;;;;;;;;;;;;;6214468;23;19907;-73
2022/09/02 07:00:46;;;;;;;;;;;;;;;;;;6214829;23;20397;-73
2022/09/02 07:05:56;;;;;;;;;;;;;;;;;;6189093;23;20321;-73
2022/09/02 07:08:22;;;;;;;;;;;;;;;;;;6214271;23;19947;-73
2022/09/02 07:10:48;;;;;;;;;;;;;;;;;;6214061;23;19907;-73
2022/09/02 07:13:14;;;;;;;;;;;;;;;;;;6237363;23;20387;-73
2022/09/02 07:15:40;;;;;;;;;;;;;;;;;;6214465;23;19938;-75
2022/09/02 07:18:07;;;;;;;;;;;;;;;;;;6213870;23;20050;-76
2022/09/02 07:20:35;;;;;;;;;;;;;;;;;;6214797;23;19908;-76
2022/09/02 07:23:01;;;;;;;;;;;;;;;;;;6214357;23;19918;-75
2022/09/02 07:25:30;;;;;;;;;;;;;;;;;;6214563;23;19907;-75
2022/09/02 07:27:56;;;;;;;;;;;;;;;;;;6213736;23;19914;-80
2022/09/02 07:30:22;;;;;;;;;;;;;;;;;;6213593;23;19956;-80
2022/09/02 07:32:53;;;;;;;;;;;;;;;;;;6186469;23;19942;-80
2022/09/02 07:35:21;;;;;;;;;;;;;;;;;;6212104;23;19922;-80
2022/09/02 07:37:48;;;;;;;;;;;;;;;;;;6209703;23;19907;-80
2022/09/02 07:40:15;;;;;;;;;;;;;;;;;;6211757;23;20408;-80
2022/09/02 07:42:41;;;;;;;;;;;;;;;;;;6213239;23;19922;-79
2022/09/02 07:45:07;;;;;;;;;;;;;;;;;;6214164;23;19954;-80
2022/09/02 07:47:34;;;;;;;;;;;;;;;;;;6214284;23;19990;-79
2022/09/02 07:50:00;;;;;;;;;;;;;;;;;;6214523;23;19938;-80
2022/09/02 07:52:26;;;;;;;;;;;;;;;;;;6189191;23;19923;-80
2022/09/02 07:54:53;;;;;;;;;;;;;;;;;;6213971;23;19919;-80
2022/09/02 07:57:18;;;;;;;;;;;;;;;;;;6189311;23;19907;-80
2022/09/02 07:59:46;;;;;;;;;;;;;;;;;;6214558;23;19953;-80
2022/09/02 08:02:13;;;;;;;;;;;;;;;;;;6214499;23;19912;-80
2022/09/02 08:04:39;;;;;;;;;;;;;;;;;;6214479;23;20332;-80
2022/09/02 08:07:06;;;;;;;;;;;;;;;;;;6214228;23;19915;-80
2022/09/02 08:09:31;;;;;;;;;;;;;;;;;;6241424;23;20256;-80
2022/09/02 08:11:57;;;;;;;;;;;;;;;;;;6213425;23;19911;-80
2022/09/02 08:14:24;;;;;;;;;;;;;;;;;;6240550;23;19974;-80
2022/09/02 08:16:50;;;;;;;;;;;;;;;;;;6241178;23;19911;-80
2022/09/02 08:19:15;;;;;;;;;;;;;;;;;;6214444;23;20418;-77
2022/09/02 08:21:41;;;;;;;;;;;;;;;;;;6241098;23;19907;-75
2022/09/02 08:24:07;;;;;;;;;;;;;;;;;;6240707;23;20368;-77
2022/09/02 08:26:35;;;;;;;;;;;;;;;;;;6241484;23;19919;-77
2022/09/02 08:29:02;;;;;;;;;;;;;;;;;;6240935;23;19907;-77
2022/09/02 08:31:28;;;;;;;;;;;;;;;;;;6218530;23;19978;-75
2022/09/02 08:33:53;;;;;;;;;;;;;;;;;;6249214;23;19915;-78
2022/09/02 08:36:19;;;;;;;;;;;;;;;;;;6240559;23;19969;-76
2022/09/02 08:38:45;;;;;;;;;;;;;;;;;;6240611;23;20279;-77
2022/09/02 08:41:11;;;;;;;;;;;;;;;;;;6240817;23;19907;-75
2022/09/02 08:43:38;;;;;;;;;;;;;;;;;;6241066;23;19934;-76
2022/09/02 08:46:07;;;;;;;;;;;;;;;;;;6238694;23;19907;-75
2022/09/02 08:48:32;;;;;;;;;;;;;;;;;;6242102;23;20359;-75
2022/09/02 08:50:58;;;;;;;;;;;;;;;;;;6242778;23;19908;-75
2022/09/02 08:53:23;;;;;;;;;;;;;;;;;;6216095;23;19915;-75
2022/09/02 08:55:49;;;;;;;;;;;;;;;;;;6241481;23;19908;-74
2022/09/02 08:58:15;;;;;;;;;;;;;;;;;;6240968;23;19973;-75
2022/09/02 09:00:40;;;;;;;;;;;;;;;;;;6242786;23;20263;-76
2022/09/02 09:03:06;;;;;;;;;;;;;;;;;;6240523;23;19911;-75
2022/09/02 09:05:32;;;;;;;;;;;;;;;;;;6243050;23;19907;-75
2022/09/02 09:07:58;;;;;;;;;;;;;;;;;;6240887;23;19907;-75
2022/09/02 09:10:24;;;;;;;;;;;;;;;;;;6242665;23;19915;-74
2022/09/02 09:12:49;;;;;;;;;;;;;;;;;;6242956;23;19916;-75
2022/09/02 09:15:15;;;;;;;;;;;;;;;;;;6242456;23;19939;-76
2022/09/02 09:17:43;;;;;;;;;;;;;;;;;;6242604;23;20332;-75
2022/09/02 09:20:08;;;;;;;;;;;;;;;;;;6242642;23;19907;-75
2022/09/02 09:22:36;;;;;;;;;;;;;;;;;;6243602;23;19946;-74
2022/09/02 09:25:01;;;;;;;;;;;;;;;;;;6242785;23;19915;-75
2022/09/02 09:27:28;;;;;;;;;;;;;;;;;;6243498;23;19908;-76
2022/09/02 09:29:54;;;;;;;;;;;;;;;;;;6248901;23;19907;-74
2022/09/02 09:32:20;;;;;;;;;;;;;;;;;;6253545;23;19918;-85
2022/09/02 09:34:47;;;;;;;;;;;;;;;;;;6259768;23;19916;-83
2022/09/02 09:37:13;;;;;;;;;;;;;;;;;;6247095;23;19912;-83
2022/09/02 09:39:39;;;;;;;;;;;;;;;;;;6244672;23;20434;-85
2022/09/02 09:42:04;;;;;;;;;;;;;;;;;;6252099;23;19953;-79
2022/09/02 09:44:30;;;;;;;;;;;;;;;;;;6255775;23;20253;-83
2022/09/02 09:46:56;;;;;;;;;;;;;;;;;;6253510;23;19907;-80
2022/09/02 09:49:21;;;;;;;;;;;;;;;;;;6250008;23;19930;-86
2022/09/02 09:51:47;;;;;;;;;;;;;;;;;;6246662;23;19907;-82
2022/09/02 09:54:13;;;;;;;;;;;;;;;;;;6254338;23;19919;-83
2022/09/02 09:56:39;;;;;;;;;;;;;;;;;;6249030;23;20002;-83
2022/09/02 09:59:04;;;;;;;;;;;;;;;;;;6215594;23;19922;-81
2022/09/02 10:01:30;;;;;;;;;;;;;;;;;;6244163;23;19914;-81
2022/09/02 10:03:56;;;;;;;;;;;;;;;;;;6240865;23;19930;-81
2022/09/02 10:06:21;;;;;;;;;;;;;;;;;;6243633;23;19907;-80
2022/09/02 10:08:47;;;;;;;;;;;;;;;;;;6242778;23;19954;-81
2022/09/02 10:11:12;;;;;;;;;;;;;;;;;;6241984;23;19911;-80
2022/09/02 10:13:38;;;;;;;;;;;;;;;;;;6242563;23;19984;-82
2022/09/02 10:16:04;;;;;;;;;;;;;;;;;;6216868;23;19908;-83
2022/09/02 10:18:30;;;;;;;;;;;;;;;;;;6243121;23;19943;-83
2022/09/02 10:20:55;;;;;;;;;;;;;;;;;;6214733;23;19907;-80
2022/09/02 10:23:21;;;;;;;;;;;;;;;;;;6243211;23;20325;-78
2022/09/02 10:25:46;;;;;;;;;;;;;;;;;;6242039;23;19907;-79
2022/09/02 10:28:13;;;;;;;;;;;;;;;;;;6214932;23;19911;-79
2022/09/02 10:30:39;;;;;;;;;;;;;;;;;;6253326;23;19907;-78
2022/09/02 10:33:04;;;;;;;;;;;;;;;;;;6248020;23;19923;-79
2022/09/02 10:35:30;;;;;;;;;;;;;;;;;;6240861;23;19923;-77
2022/09/02 10:37:56;;;;;;;;;;;;;;;;;;6241243;23;19908;-78
2022/09/02 10:40:21;;;;;;;;;;;;;;;;;;6240920;23;19966;-78
2022/09/02 10:42:47;;;;;;;;;;;;;;;;;;6240587;23;19908;-82
2022/09/02 10:45:12;;;;;;;;;;;;;;;;;;6242088;23;19914;-81
2022/09/02 10:47:39;;;;;;;;;;;;;;;;;;6241158;23;20456;-84
2022/09/02 10:50:04;;;;;;;;;;;;;;;;;;6242711;23;19907;-80
2022/09/02 10:52:30;;;;;;;;;;;;;;;;;;6240812;23;19916;-82
2022/09/02 10:54:55;;;;;;;;;;;;;;;;;;6241678;23;19914;-77
2022/09/02 10:57:21;;;;;;;;;;;;;;;;;;6214534;23;19908;-75
2022/09/02 10:59:50;;;;;;;;;;;;;;;;;;6214890;23;19914;-75
2022/09/02 11:02:15;;;;;;;;;;;;;;;;;;6240799;23;19915;-77
2022/09/02 11:04:41;;;;;;;;;;;;;;;;;;6240282;23;19908;-75
2022/09/02 11:07:06;;;;;;;;;;;;;;;;;;6241039;23;20257;-75
2022/09/02 11:09:32;;;;;;;;;;;;;;;;;;6240668;23;19914;-75
2022/09/02 11:11:59;;;;;;;;;;;;;;;;;;6239334;23;19981;-74
2022/09/02 11:14:25;;;;;;;;;;;;;;;;;;6214758;23;19915;-76
2022/09/02 11:16:50;;;;;;;;;;;;;;;;;;6240990;23;19914;-75
2022/09/02 11:19:16;;;;;;;;;;;;;;;;;;6240797;23;19907;-75
2022/09/02 11:21:42;;;;;;;;;;;;;;;;;;6241488;23;19914;-75
2022/09/02 11:24:07;;;;;;;;;;;;;;;;;;6240776;23;19914;-76
2022/09/02 11:26:34;;;;;;;;;;;;;;;;;;6240835;23;19911;-76
2022/09/02 11:29:00;;;;;;;;;;;;;;;;;;6241249;23;20363;-75
2022/09/02 11:31:25;;;;;;;;;;;;;;;;;;6241161;23;19907;-77
2022/09/02 11:33:51;;;;;;;;;;;;;;;;;;6240804;23;20311;-77
2022/09/02 11:36:16;;;;;;;;;;;;;;;;;;6241040;23;19915;-73
2022/09/02 11:38:42;;;;;;;;;;;;;;;;;;6239660;23;20294;-76
2022/09/02 11:41:08;;;;;;;;;;;;;;;;;;6240669;23;20371;-76
2022/09/02 11:43:33;;;;;;;;;;;;;;;;;;6240429;23;19994;-76
2022/09/02 11:45:59;;;;;;;;;;;;;;;;;;6240968;23;19915;-76
2022/09/02 11:48:28;;;;;;;;;;;;;;;;;;6241063;23;19915;-75
2022/09/02 11:50:53;;;;;;;;;;;;;;;;;;6241516;23;19994;-74
2022/09/02 11:53:19;;;;;;;;;;;;;;;;;;6240754;23;20320;-75
2022/09/02 11:55:45;;;;;;;;;;;;;;;;;;6241572;23;20229;-75
2022/09/02 11:58:11;;;;;;;;;;;;;;;;;;6214237;23;20377;-76
2022/09/02 12:00:37;;;;;;;;;;;;;;;;;;6241529;23;19915;-73
2022/09/02 12:03:03;;;;;;;;;;;;;;;;;;6212872;23;19911;-74
2022/09/02 12:05:28;;;;;;;;;;;;;;;;;;6239258;23;19907;-78
2022/09/02 12:07:54;;;;;;;;;;;;;;;;;;6239362;23;19907;-78
2022/09/02 12:10:20;;;;;;;;;;;;;;;;;;6216096;23;19942;-83
2022/09/02 12:12:47;;;;;;;;;;;;;;;;;;6216130;23;19919;-74
2022/09/02 12:15:13;;;;;;;;;;;;;;;;;;6240863;23;19918;-74
2022/09/02 12:17:39;;;;;;;;;;;;;;;;;;6239986;23;20358;-81
2022/09/02 12:20:06;;;;;;;;;;;;;;;;;;6215559;23;19908;-83
2022/09/02 12:22:32;;;;;;;;;;;;;;;;;;6241794;23;19914;-76
2022/09/02 12:24:58;;;;;;;;;;;;;;;;;;6240805;23;19908;-74
2022/09/02 12:27:23;;;;;;;;;;;;;;;;;;6241826;23;19909;-78
2022/09/02 12:29:49;;;;;;;;;;;;;;;;;;6254870;23;19908;-76
2022/09/02 12:32:14;;;;;;;;;;;;;;;;;;6242014;23;19911;-77
2022/09/02 12:34:40;;;;;;;;;;;;;;;;;;6240679;23;19907;-76
2022/09/02 12:37:06;;;;;;;;;;;;;;;;;;6240664;23;19946;-78
2022/09/02 12:39:34;;;;;;;;;;;;;;;;;;6240279;23;19907;-77
2022/09/02 12:42:04;;;;;;;;;;;;;;;;;;6213892;23;20110;-77
2022/09/02 12:44:30;;;;;;;;;;;;;;;;;;6238964;23;20014;-77
2022/09/02 12:46:55;;;;;;;;;;;;;;;;;;6240589;23;20237;-76
2022/09/02 12:49:21;;;;;;;;;;;;;;;;;;6240649;23;20232;-77
2022/09/02 12:51:46;;;;;;;;;;;;;;;;;;6213559;23;19935;-77
2022/09/02 12:54:13;;;;;;;;;;;;;;;;;;6240393;23;19911;-78
2022/09/02 12:56:39;;;;;;;;;;;;;;;;;;6240856;23;20636;-75
2022/09/02 12:59:04;;;;;;;;;;;;;;;;;;6240422;23;19942;-76
2022/09/02 13:01:30;;;;;;;;;;;;;;;;;;6239659;23;19908;-78
2022/09/02 13:03:55;;;;;;;;;;;;;;;;;;6213250;23;19907;-78
2022/09/02 13:06:21;;;;;;;;;;;;;;;;;;6241624;23;19907;-78
2022/09/02 13:08:48;;;;;;;;;;;;;;;;;;6216390;23;19908;-78
2022/09/02 13:11:13;;;;;;;;;;;;;;;;;;6241262;23;19970;-78
2022/09/02 13:13:39;;;;;;;;;;;;;;;;;;6238808;23;19969;-77
2022/09/02 13:16:04;;;;;;;;;;;;;;;;;;6240460;23;20256;-78
2022/09/02 13:18:30;;;;;;;;;;;;;;;;;;6240852;23;19908;-78
2022/09/02 13:20:56;;;;;;;;;;;;;;;;;;6240891;23;19907;-77
2022/09/02 13:23:21;;;;;;;;;;;;;;;;;;6239956;23;19934;-81
2022/09/02 13:25:47;;;;;;;;;;;;;;;;;;6239736;23;19907;-80
2022/09/02 13:28:13;;;;;;;;;;;;;;;;;;6242553;23;20235;-75
2022/09/02 13:30:38;;;;;;;;;;;;;;;;;;6244403;23;19907;-82
2022/09/02 13:33:04;;;;;;;;;;;;;;;;;;6254018;23;19935;-80
2022/09/02 13:35:29;;;;;;;;;;;;;;;;;;6253920;23;19915;-81
2022/09/02 13:37:58;;;;;;;;;;;;;;;;;;6247888;23;20343;-80
2022/09/02 13:40:23;;;;;;;;;;;;;;;;;;6242498;23;19966;-79
2022/09/02 13:42:49;;;;;;;;;;;;;;;;;;6240673;23;19907;-81
2022/09/02 13:45:15;;;;;;;;;;;;;;;;;;6242456;23;19907;-80
2022/09/02 13:47:40;;;;;;;;;;;;;;;;;;6242559;23;20300;-80
2022/09/02 13:50:06;;;;;;;;;;;;;;;;;;6240960;23;19907;-79
2022/09/02 13:52:31;;;;;;;;;;;;;;;;;;6242540;23;20382;-80
2022/09/02 13:54:57;;;;;;;;;;;;;;;;;;6242293;23;19907;-77
2022/09/02 13:57:23;;;;;;;;;;;;;;;;;;6242594;23;19974;-79
2022/09/02 13:59:49;;;;;;;;;;;;;;;;;;6215683;23;20209;-80
2022/09/02 14:02:15;;;;;;;;;;;;;;;;;;6242240;23;19912;-80
2022/09/02 14:04:40;;;;;;;;;;;;;;;;;;6215656;23;20237;-79
2022/09/02 14:07:06;;;;;;;;;;;;;;;;;;6242164;23;20300;-79
2022/09/02 14:09:31;;;;;;;;;;;;;;;;;;6215067;23;20332;-78
2022/09/02 14:11:57;;;;;;;;;;;;;;;;;;6240838;23;19907;-80
2022/09/02 14:14:23;;;;;;;;;;;;;;;;;;6215669;23;20318;-80
2022/09/02 14:16:48;;;;;;;;;;;;;;;;;;6242047;23;19911;-78
2022/09/02 14:19:14;;;;;;;;;;;;;;;;;;6240329;23;19907;-81
2022/09/02 14:21:39;;;;;;;;;;;;;;;;;;6242438;23;20356;-82
2022/09/02 14:24:05;;;;;;;;;;;;;;;;;;6241355;23;19907;-82
2022/09/02 14:26:31;;;;;;;;;;;;;;;;;;6253190;23;19907;-76
2022/09/02 14:28:56;;;;;;;;;;;;;;;;;;6218067;23;19907;-77
2022/09/02 14:31:22;;;;;;;;;;;;;;;;;;6242276;23;19953;-82
2022/09/02 14:33:47;;;;;;;;;;;;;;;;;;6241762;23;19961;-80
2022/09/02 14:36:13;;;;;;;;;;;;;;;;;;6240005;23;19919;-80
2022/09/02 14:38:39;;;;;;;;;;;;;;;;;;6242131;23;20438;-80
2022/09/02 14:41:04;;;;;;;;;;;;;;;;;;6241839;23;19907;-81
2022/09/02 14:43:30;;;;;;;;;;;;;;;;;;6241783;23;19908;-80
2022/09/02 14:45:56;;;;;;;;;;;;;;;;;;6215052;23;20090;-79
2022/09/02 14:48:21;;;;;;;;;;;;;;;;;;6241813;23;19990;-79
2022/09/02 14:50:47;;;;;;;;;;;;;;;;;;6242338;23;19907;-75
2022/09/02 14:53:12;;;;;;;;;;;;;;;;;;6241781;23;20310;-76
2022/09/02 14:55:38;;;;;;;;;;;;;;;;;;6242098;23;19908;-77
2022/09/02 14:58:04;;;;;;;;;;;;;;;;;;6241526;23;20345;-81
2022/09/02 15:00:31;;;;;;;;;;;;;;;;;;6214960;23;20343;-81
2022/09/02 15:02:59;;;;;;;;;;;;;;;;;;6241033;23;19908;-80
2022/09/02 15:05:25;;;;;;;;;;;;;;;;;;6213580;23;20042;-79
2022/09/02 15:07:51;;;;;;;;;;;;;;;;;;6241703;23;19914;-79
2022/09/02 15:10:16;;;;;;;;;;;;;;;;;;6240947;23;19907;-78
2022/09/02 15:12:42;;;;;;;;;;;;;;;;;;6241364;23;19922;-77
2022/09/02 15:15:07;;;;;;;;;;;;;;;;;;6239340;23;19926;-76
2022/09/02 15:17:33;;;;;;;;;;;;;;;;;;6240686;23;19957;-78
2022/09/02 15:19:58;;;;;;;;;;;;;;;;;;6240961;23;19911;-77
2022/09/02 15:22:24;;;;;;;;;;;;;;;;;;6240390;23;19908;-78
2022/09/02 15:24:50;;;;;;;;;;;;;;;;;;6241434;23;19935;-76
2022/09/02 15:27:15;;;;;;;;;;;;;;;;;;6241532;23;19915;-78
2022/09/02 15:29:41;;;;;;;;;;;;;;;;;;6241535;23;20001;-76
2022/09/02 15:32:07;;;;;;;;;;;;;;;;;;6240568;23;19934;-77
2022/09/02 15:34:36;;;;;;;;;;;;;;;;;;6240603;23;20336;-78
2022/09/02 15:37:02;;;;;;;;;;;;;;;;;;6214466;23;19914;-77
2022/09/02 15:39:27;;;;;;;;;;;;;;;;;;6240374;23;19907;-78
2022/09/02 15:41:54;;;;;;;;;;;;;;;;;;6240510;23;20001;-78
2022/09/02 15:44:19;;;;;;;;;;;;;;;;;;6240218;23;19914;-77
2022/09/02 15:46:45;;;;;;;;;;;;;;;;;;6239757;23;19911;-76
2022/09/02 15:49:11;;;;;;;;;;;;;;;;;;6240733;23;19908;-76
2022/09/02 15:51:37;;;;;;;;;;;;;;;;;;6214270;23;20658;-75
2022/09/02 15:54:03;;;;;;;;;;;;;;;;;;6240829;23;20010;-75
2022/09/02 15:56:29;;;;;;;;;;;;;;;;;;6240472;23;19939;-76
2022/09/02 15:58:56;;;;;;;;;;;;;;;;;;6213841;23;19913;-82
2022/09/02 16:01:22;;;;;;;;;;;;;;;;;;6188895;23;19908;-78
2022/09/02 16:03:47;;;;;;;;;;;;;;;;;;6240392;23;19926;-77
2022/09/02 16:06:13;;;;;;;;;;;;;;;;;;6239335;23;19911;-76
2022/09/02 16:08:38;;;;;;;;;;;;;;;;;;6188387;23;20370;-79
2022/09/02 16:11:04;;;;;;;;;;;;;;;;;;6213891;23;19907;-79
2022/09/02 16:13:30;;;;;;;;;;;;;;;;;;6240551;23;19922;-78
2022/09/02 16:15:55;;;;;;;;;;;;;;;;;;6240487;23;19908;-78
2022/09/02 16:18:21;;;;;;;;;;;;;;;;;;6241256;23;19954;-78
2022/09/02 16:20:46;;;;;;;;;;;;;;;;;;6213256;23;19913;-78
2022/09/02 16:23:12;;;;;;;;;;;;;;;;;;6220602;23;19950;-78
2022/09/02 16:25:38;;;;;;;;;;;;;;;;;;6254905;23;19938;-78
2022/09/02 16:28:03;;;;;;;;;;;;;;;;;;6240560;23;19911;-77
2022/09/02 16:30:29;;;;;;;;;;;;;;;;;;6241081;23;19935;-77
2022/09/02 16:32:54;;;;;;;;;;;;;;;;;;6240668;23;19915;-77
2022/09/02 16:35:20;;;;;;;;;;;;;;;;;;6240242;23;20336;-81
2022/09/02 16:37:46;;;;;;;;;;;;;;;;;;6240567;23;20259;-78
2022/09/02 16:40:19;;;;;;;;;;;;;;;;;;6239063;23;19908;-79